Time;durP1;ratioP1;P1;durP2;ratioP2;P2;SDS_P1;SDS_P2;PMS_P1;PMS_P2;Temp;Humidity;BMP_temperature;BMP_pressure;BME280_temperature;BME280_humidity;BME280_pressure;Samples;Min_cycle;Max_cycle;Signal;HPM_P1;HPM_P2
2023/11/05 00:01:56;;;;;;;5.05;3.45;;;;;;;7.44;100.00;95291.56;1225383;75;2923812;-69
2023/11/05 00:04:28;;;;;;;4.05;2.90;;;;;;;7.74;100.00;95296.16;1223654;75;2925246;-72
2023/11/05 00:07:01;;;;;;;3.80;2.55;;;;;;;7.56;100.00;95306.53;1226725;75;2835919;-71
2023/11/05 00:09:36;;;;;;;3.10;2.50;;;;;;;7.61;100.00;95318.59;1225337;75;2915498;-69
2023/11/05 00:12:09;;;;;;;3.55;2.45;;;;;;;7.72;100.00;95312.28;1222514;75;3058933;-70
2023/11/05 00:14:42;;;;;;;2.65;2.05;;;;;;;7.79;100.00;95315.19;1225831;75;2927524;-70
2023/11/05 00:17:15;;;;;;;2.95;2.15;;;;;;;7.75;100.00;95312.00;1225559;75;2923566;-68
2023/11/05 00:19:47;;;;;;;2.60;1.90;;;;;;;7.68;100.00;95316.03;1224417;75;2946527;-69
2023/11/05 00:22:20;;;;;;;2.80;2.20;;;;;;;7.29;100.00;95321.16;1226097;75;2923186;-70
2023/11/05 00:24:55;;;;;;;5.65;3.00;;;;;;;7.25;100.00;95322.19;1224960;75;2929869;-71
2023/11/05 00:27:28;;;;;;;5.85;3.05;;;;;;;7.29;100.00;95311.03;1223705;75;2916799;-68
2023/11/05 00:30:00;;;;;;;3.50;2.50;;;;;;;7.54;100.00;95292.69;1225471;75;2919038;-68
2023/11/05 00:32:33;;;;;;;2.55;2.05;;;;;;;7.77;100.00;95300.59;1225271;75;2926687;-70
2023/11/05 00:35:06;;;;;;;2.60;1.90;;;;;;;7.76;100.00;95285.50;1222187;75;3098609;-69
2023/11/05 00:37:39;;;;;;;3.20;2.10;;;;;;;7.74;100.00;95290.72;1225570;75;2917910;-69
2023/11/05 00:40:15;;;;;;;2.50;1.70;;;;;;;7.81;100.00;95298.31;1224165;75;2915471;-70
2023/11/05 00:42:48;;;;;;;1.90;1.60;;;;;;;7.70;100.00;95274.69;1223895;75;2911382;-69
2023/11/05 00:45:21;;;;;;;3.95;2.10;;;;;;;7.29;100.00;95272.19;1225296;75;2922444;-68
2023/11/05 00:47:53;;;;;;;5.40;2.95;;;;;;;7.28;100.00;95268.72;1225590;75;2914566;-72
2023/11/05 00:50:26;;;;;;;5.35;3.00;;;;;;;7.29;100.00;95255.84;1225514;75;2924583;-69
2023/11/05 00:52:58;;;;;;;4.05;3.00;;;;;;;7.29;100.00;95245.72;1225940;75;2924332;-72
2023/11/05 00:55:34;;;;;;;4.20;2.80;;;;;;;7.58;100.00;95235.97;1223211;75;3016092;-72
2023/11/05 00:58:07;;;;;;;3.15;2.40;;;;;;;7.37;100.00;95232.28;1225445;75;2917553;-71
2023/11/05 01:00:39;;;;;;;3.10;2.25;;;;;;;7.66;100.00;95231.41;1225664;75;2916489;-69
2023/11/05 01:03:13;;;;;;;2.45;1.90;;;;;;;7.79;100.00;95221.81;1225639;75;2925962;-68
2023/11/05 01:05:45;;;;;;;2.75;1.95;;;;;;;7.76;100.00;95223.59;1225736;75;2914728;-70
2023/11/05 01:08:18;;;;;;;1.30;1.20;;;;;;;7.86;100.00;95227.44;1224791;75;2920405;-70
2023/11/05 01:10:53;;;;;;;1.60;1.40;;;;;;;7.85;100.00;95222.50;1225661;75;2920536;-70
2023/11/05 01:13:26;;;;;;;1.40;1.20;;;;;;;7.95;100.00;95225.56;1225345;75;2920033;-69
2023/11/05 01:15:59;;;;;;;1.25;1.10;;;;;;;7.94;100.00;95230.28;1225111;75;2915501;-71
2023/11/05 01:18:31;;;;;;;1.40;1.20;;;;;;;7.94;100.00;95222.13;1225428;75;2923643;-70
2023/11/05 01:21:04;;;;;;;1.20;1.10;;;;;;;7.92;100.00;95211.00;1224726;75;2918372;-69
2023/11/05 01:23:37;;;;;;;1.60;1.10;;;;;;;7.99;100.00;95210.41;1225636;75;2919526;-70
2023/11/05 01:26:15;;;;;;;2.10;1.40;;;;;;;7.79;100.00;95206.25;1225465;75;2913499;-71
2023/11/05 01:28:48;;;;;;;1.70;1.30;;;;;;;7.99;100.00;95204.97;1225529;75;2922384;-70
2023/11/05 01:31:21;;;;;;;1.80;1.30;;;;;;;7.98;100.00;95189.84;1225735;75;2915748;-69
2023/11/05 01:33:54;;;;;;;1.35;1.10;;;;;;;8.06;100.00;95184.56;1224875;75;2925170;-73
2023/11/05 01:36:26;;;;;;;1.10;1.00;;;;;;;8.13;100.00;95166.84;1225906;75;2921946;-71
2023/11/05 01:38:59;;;;;;;1.10;1.00;;;;;;;8.19;100.00;95168.22;1225776;75;2918276;-69
2023/11/05 01:41:34;;;;;;;1.50;1.10;;;;;;;8.11;100.00;95159.19;1225862;75;2924495;-70
2023/11/05 01:44:08;;;;;;;2.20;1.45;;;;;;;7.89;100.00;95168.47;1225583;75;2913630;-71
2023/11/05 01:46:41;;;;;;;1.65;1.40;;;;;;;8.09;100.00;95173.34;1224449;75;2922578;-69
2023/11/05 01:49:14;;;;;;;3.15;1.50;;;;;;;7.92;100.00;95167.41;1224340;75;2924593;-71
2023/11/05 01:51:47;;;;;;;1.75;1.30;;;;;;;7.84;100.00;95174.72;1225449;75;2924929;-70
2023/11/05 01:54:20;;;;;;;5.40;1.80;;;;;;;7.82;100.00;95155.44;1224285;75;2912031;-71
2023/11/05 01:56:56;;;;;;;1.80;1.20;;;;;;;8.07;100.00;95145.13;1225560;75;2913010;-69
2023/11/05 01:59:29;;;;;;;2.60;1.80;;;;;;;8.04;100.00;95146.91;1226033;75;2913146;-68
2023/11/05 02:02:04;;;;;;;2.20;1.40;;;;;;;8.10;100.00;95144.84;1224510;75;2917184;-70
2023/11/05 02:04:37;;;;;;;5.25;2.45;;;;;;;7.90;100.00;95146.13;1225291;75;2922921;-71
2023/11/05 02:07:10;;;;;;;3.75;2.70;;;;;;;7.74;100.00;95130.06;1225296;75;2913764;-70
2023/11/05 02:09:42;;;;;;;4.25;3.20;;;;;;;7.47;100.00;95117.06;1225618;75;2911216;-69
2023/11/05 02:12:18;;;;;;;4.45;3.20;;;;;;;7.56;100.00;95120.66;1225296;75;2925841;-71
2023/11/05 02:14:55;;;;;;;4.85;3.45;;;;;;;7.58;100.00;95110.72;1225319;75;2919047;-69
2023/11/05 02:17:27;;;;;;;4.60;3.40;;;;;;;7.66;100.00;95108.13;1225359;75;2918599;-70
2023/11/05 02:20:05;;;;;;;5.55;3.50;;;;;;;7.59;100.00;95097.84;1225870;75;2905782;-71
2023/11/05 02:22:39;;;;;;;3.00;2.40;;;;;;;7.65;100.00;95103.97;1224009;75;2921510;-71
2023/11/05 02:25:18;;;;;;;4.40;3.30;;;;;;;7.66;100.00;95106.16;1224571;75;2914758;-70
2023/11/05 02:27:53;;;;;;;5.55;3.85;;;;;;;7.67;100.00;95118.53;1225614;75;2914643;-69
2023/11/05 02:30:26;;;;;;;4.55;3.55;;;;;;;7.66;100.00;95099.97;1224271;75;2925169;-70
2023/11/05 02:33:00;;;;;;;4.95;3.30;;;;;;;7.78;100.00;95086.91;1225325;75;2922794;-69
2023/11/05 02:35:33;;;;;;;3.30;2.60;;;;;;;8.00;100.00;95080.38;1225774;75;2911437;-70
2023/11/05 02:38:05;;;;;;;3.25;2.20;;;;;;;8.20;100.00;95087.19;1224932;75;2919921;-71
2023/11/05 02:40:41;;;;;;;2.35;1.95;;;;;;;8.24;100.00;95060.38;1225934;75;2909375;-70
2023/11/05 02:43:14;;;;;;;2.65;1.80;;;;;;;8.27;100.00;95042.97;1224971;75;2915874;-70
2023/11/05 02:45:46;;;;;;;2.65;1.80;;;;;;;8.33;100.00;95052.53;1224147;75;2918680;-72
2023/11/05 02:48:19;;;;;;;1.75;1.55;;;;;;;8.25;100.00;95070.75;1225597;75;2912266;-69
2023/11/05 02:50:52;;;;;;;4.50;2.90;;;;;;;8.00;100.00;95072.19;1224340;75;2927430;-68
2023/11/05 02:53:24;;;;;;;2.55;1.70;;;;;;;8.19;100.00;95029.25;1224510;75;2916408;-71
2023/11/05 02:56:00;;;;;;;2.20;1.70;;;;;;;8.22;100.00;95046.53;1224738;75;2920402;-69
2023/11/05 02:58:32;;;;;;;2.50;1.75;;;;;;;7.94;100.00;95028.72;1225586;75;2918047;-69
2023/11/05 03:01:05;;;;;;;1.85;1.60;;;;;;;8.20;100.00;95019.81;1224606;75;2925326;-70
2023/11/05 03:03:38;;;;;;;2.05;1.30;;;;;;;8.32;100.00;95010.19;1225092;75;2915021;-69
2023/11/05 03:06:11;;;;;;;1.50;1.05;;;;;;;8.38;100.00;95014.78;1222390;75;3004302;-69
2023/11/05 03:08:44;;;;;;;1.55;0.95;;;;;;;8.34;100.00;95009.63;1224533;75;2917606;-68
2023/11/05 03:11:19;;;;;;;2.60;1.05;;;;;;;8.46;100.00;95008.19;1225125;75;2920765;-70
2023/11/05 03:13:52;;;;;;;1.70;1.10;;;;;;;8.41;100.00;95003.56;1225285;75;2914882;-68
2023/11/05 03:16:24;;;;;;;1.75;0.90;;;;;;;8.50;100.00;95003.16;1224637;75;2923714;-68
2023/11/05 03:18:57;;;;;;;1.55;0.90;;;;;;;8.48;100.00;94983.13;1224893;75;2917323;-68
2023/11/05 03:21:31;;;;;;;1.95;1.20;;;;;;;8.35;100.00;94961.31;1224282;75;2916205;-71
2023/11/05 03:24:04;;;;;;;2.00;0.95;;;;;;;8.33;100.00;94954.38;1224709;75;2915200;-70
2023/11/05 03:26:39;;;;;;;1.20;0.90;;;;;;;8.46;100.00;94955.66;1224474;75;2915149;-72
2023/11/05 03:29:12;;;;;;;1.85;1.30;;;;;;;8.40;100.00;94955.78;1224681;75;2920211;-68
2023/11/05 03:31:45;;;;;;;1.85;1.00;;;;;;;8.39;100.00;94934.47;1224781;75;2919759;-70
2023/11/05 03:34:18;;;;;;;1.35;0.95;;;;;;;8.44;100.00;94914.56;1225163;75;2925977;-69
2023/11/05 03:36:50;;;;;;;1.95;1.20;;;;;;;8.36;100.00;94913.72;1226093;83;2909231;-70
2023/11/05 03:39:23;;;;;;;1.70;1.25;;;;;;;8.07;100.00;94908.81;1223763;75;2958978;-69
2023/11/05 03:41:58;;;;;;;1.80;1.10;;;;;;;8.47;100.00;94903.34;1224530;75;2917225;-69
2023/11/05 03:44:31;;;;;;;1.55;1.10;;;;;;;8.43;100.00;94886.56;1225434;75;2911699;-71
2023/11/05 03:47:04;;;;;;;1.50;1.20;;;;;;;8.41;100.00;94859.09;1224383;75;2923085;-70
2023/11/05 03:49:36;;;;;;;1.10;0.80;;;;;;;8.39;100.00;94864.31;1213670;75;3756960;-69
2023/11/05 03:52:11;;;;;;;1.45;1.10;;;;;;;8.36;100.00;94853.75;1225358;75;2912393;-69
2023/11/05 03:54:43;;;;;;;1.30;1.10;;;;;;;8.26;100.00;94856.19;1224909;75;2919415;-71
2023/11/05 03:57:18;;;;;;;1.70;1.15;;;;;;;8.34;100.00;94848.81;1225079;75;2917109;-69
2023/11/05 03:59:51;;;;;;;1.45;1.20;;;;;;;8.25;100.00;94828.22;1225534;75;2922707;-68
2023/11/05 04:02:25;;;;;;;1.20;1.00;;;;;;;8.23;100.00;94830.00;1225262;75;2913129;-71
2023/11/05 04:04:57;;;;;;;1.90;1.30;;;;;;;8.35;100.00;94827.75;1224642;75;2917271;-70
2023/11/05 04:07:30;;;;;;;1.10;1.00;;;;;;;8.46;100.00;94832.97;1225936;75;2921211;-72
2023/11/05 04:10:03;;;;;;;1.05;0.90;;;;;;;8.52;100.00;94831.59;1225903;75;2914006;-69
2023/11/05 04:12:39;;;;;;;1.40;1.10;;;;;;;8.45;100.00;94815.88;1225059;75;2921786;-68
2023/11/05 04:15:13;;;;;;;1.20;1.00;;;;;;;8.45;100.00;94810.44;1224973;75;2916329;-68
2023/11/05 04:17:45;;;;;;;1.45;1.30;;;;;;;8.35;100.00;94805.97;1223890;75;2918231;-69
2023/11/05 04:20:18;;;;;;;2.25;1.50;;;;;;;8.40;100.00;94796.94;1224713;75;2923420;-69
2023/11/05 04:22:51;;;;;;;2.75;1.80;;;;;;;8.03;100.00;94779.63;1225531;75;2923665;-69
2023/11/05 04:25:23;;;;;;;3.20;1.45;;;;;;;8.11;100.00;94781.19;1225764;75;2919140;-68
2023/11/05 04:27:58;;;;;;;1.40;1.30;;;;;;;8.14;100.00;94773.22;1225683;75;2915394;-68
2023/11/05 04:30:31;;;;;;;2.85;1.30;;;;;;;7.93;100.00;94770.44;1225020;75;2929394;-67
2023/11/05 04:33:04;;;;;;;1.20;1.05;;;;;;;8.32;100.00;94766.84;1224617;75;2925290;-69
2023/11/05 04:35:36;;;;;;;2.65;1.30;;;;;;;8.38;100.00;94753.09;1221491;75;3058789;-71
2023/11/05 04:38:09;;;;;;;1.75;1.10;;;;;;;8.23;100.00;94732.63;1225457;75;2918828;-70
2023/11/05 04:40:42;;;;;;;1.90;1.30;;;;;;;8.10;100.00;94714.34;1225347;75;2913359;-69
2023/11/05 04:43:17;;;;;;;1.35;1.00;;;;;;;8.24;100.00;94730.63;1224539;75;2920169;-70
2023/11/05 04:45:50;;;;;;;1.65;1.10;;;;;;;8.42;100.00;94740.63;1225129;75;2917783;-70
2023/11/05 04:48:23;;;;;;;1.60;1.15;;;;;;;8.44;100.00;94735.38;1225166;75;2926077;-69
2023/11/05 04:50:55;;;;;;;1.50;1.00;;;;;;;8.30;100.00;94731.22;1224456;75;2922395;-68
2023/11/05 04:53:28;;;;;;;0.90;0.90;;;;;;;8.23;100.00;94721.72;1224728;75;2923744;-71
2023/11/05 04:56:00;;;;;;;1.05;0.90;;;;;;;8.40;100.00;94739.69;1224368;75;2917321;-70
2023/11/05 04:58:36;;;;;;;2.85;2.05;;;;;;;8.28;100.00;94753.56;1225297;75;2921339;-69
2023/11/05 05:01:09;;;;;;;2.85;2.10;;;;;;;8.38;100.00;94781.09;1225127;75;2924842;-71
2023/11/05 05:03:41;;;;;;;6.70;6.10;;;;;;;8.02;100.00;94799.97;1224792;75;2937187;-73
2023/11/05 05:06:14;;;;;;;5.30;3.15;;;;;;;7.87;100.00;94833.22;1225375;75;2923709;-70
2023/11/05 05:08:48;;;;;;;2.00;1.75;;;;;;;7.41;100.00;94835.38;1223407;75;2935015;-72
2023/11/05 05:11:21;;;;;;;2.35;1.60;;;;;;;7.21;100.00;94859.19;1223109;75;2922438;-69
2023/11/05 05:13:56;;;;;;;2.65;1.50;;;;;;;7.18;100.00;94914.66;1223107;75;2933043;-70
2023/11/05 05:16:29;;;;;;;3.25;1.70;;;;;;;7.21;100.00;94951.69;1223904;75;2927632;-70
2023/11/05 05:19:01;;;;;;;2.10;1.70;;;;;;;7.30;100.00;94985.94;1224245;75;2923784;-71
2023/11/05 05:21:34;;;;;;;2.60;1.95;;;;;;;7.39;100.00;95017.50;1223884;75;2923695;-72
2023/11/05 05:24:08;;;;;;;1.75;1.40;;;;;;;7.23;100.00;95019.19;1223883;75;2919607;-68
2023/11/05 05:26:41;;;;;;;1.65;1.20;;;;;;;7.31;100.00;95016.59;1222498;75;2938321;-69
2023/11/05 05:29:16;;;;;;;2.25;1.25;;;;;;;7.21;100.00;94964.56;1223549;75;2927571;-67
2023/11/05 05:31:49;;;;;;;3.35;1.65;;;;;;;6.97;100.00;94898.16;1223748;75;2927078;-68
2023/11/05 05:34:22;;;;;;;2.95;1.35;;;;;;;7.01;100.00;94865.22;1224018;75;2938321;-69
2023/11/05 05:36:54;;;;;;;2.25;1.60;;;;;;;6.95;100.00;94853.69;1224183;75;2916197;-70
2023/11/05 05:39:27;;;;;;;1.20;1.00;;;;;;;7.15;100.00;94827.91;1224585;75;2921607;-69
2023/11/05 05:42:03;;;;;;;2.25;1.30;;;;;;;7.51;100.00;94814.63;1225425;75;2916455;-68
2023/11/05 05:44:39;;;;;;;0.85;0.80;;;;;;;7.63;100.00;94782.47;1224373;75;2926994;-69
2023/11/05 05:47:12;;;;;;;1.15;0.80;;;;;;;7.69;100.00;94748.41;1224888;75;2922330;-68
2023/11/05 05:49:44;;;;;;;0.70;0.60;;;;;;;7.75;100.00;94702.00;1224867;75;2922155;-68
2023/11/05 05:52:17;;;;;;;1.20;0.90;;;;;;;7.44;100.00;94728.88;1225428;75;2915353;-67
2023/11/05 05:54:50;;;;;;;0.80;0.80;;;;;;;7.77;100.00;94781.19;1225776;75;2920474;-69
2023/11/05 05:57:23;;;;;;;1.45;0.90;;;;;;;7.59;100.00;94831.06;1226014;75;2924569;-68
2023/11/05 05:59:58;;;;;;;3.30;2.80;;;;;;;7.57;100.00;94739.00;1224882;75;2920322;-69
2023/11/05 06:02:31;;;;;;;2.30;1.30;;;;;;;7.57;100.00;94675.66;1223049;75;2980841;-70
2023/11/05 06:05:03;;;;;;;1.30;1.10;;;;;;;7.82;100.00;94736.03;1224980;75;2923433;-68
2023/11/05 06:07:36;;;;;;;1.40;1.00;;;;;;;7.88;100.00;94723.00;1224864;75;2918840;-70
2023/11/05 06:10:12;;;;;;;3.80;1.40;;;;;;;7.34;100.00;94684.31;1224131;75;2915728;-69
2023/11/05 06:12:45;;;;;;;3.60;1.70;;;;;;;7.30;100.00;94653.97;1221729;75;2920338;-70
2023/11/05 06:15:20;;;;;;;1.65;1.30;;;;;;;7.42;100.00;94668.06;1222320;75;2920577;-69
2023/11/05 06:17:53;;;;;;;1.75;1.35;;;;;;;7.46;100.00;94671.22;1223122;75;2950339;-71
2023/11/05 06:20:26;;;;;;;1.65;1.30;;;;;;;7.44;100.00;94668.28;1223999;75;2920347;-71
2023/11/05 06:22:59;;;;;;;1.75;1.30;;;;;;;7.59;100.00;94698.38;1225285;75;2924203;-68
2023/11/05 06:25:31;;;;;;;1.60;1.30;;;;;;;7.63;100.00;94728.75;1224453;75;2922099;-68
2023/11/05 06:28:04;;;;;;;2.00;1.20;;;;;;;7.56;100.00;94729.38;1225745;75;2928034;-70
2023/11/05 06:30:40;;;;;;;1.50;1.20;;;;;;;7.59;100.00;94744.66;1225679;75;2920992;-70
2023/11/05 06:33:13;;;;;;;4.85;1.15;;;;;;;7.67;100.00;94750.19;1226151;75;2922522;-69
2023/11/05 06:35:45;;;;;;;1.10;1.00;;;;;;;7.63;100.00;94783.19;1225839;75;2919464;-69
2023/11/05 06:38:19;;;;;;;1.38;1.10;;;;;;;7.76;100.00;94773.53;1199645;75;5992637;-66
2023/11/05 06:40:52;;;;;;;1.25;1.00;;;;;;;7.77;100.00;94783.91;1223584;75;2926002;-69
2023/11/05 06:43:24;;;;;;;1.45;1.15;;;;;;;7.83;100.00;94778.34;1224723;75;2919579;-72
2023/11/05 06:46:00;;;;;;;1.50;1.20;;;;;;;7.86;100.00;94785.44;1224333;75;2929757;-69
2023/11/05 06:48:33;;;;;;;2.90;2.30;;;;;;;7.81;100.00;94827.88;1225047;75;2921961;-69
2023/11/05 06:51:06;;;;;;;4.25;2.95;;;;;;;7.93;100.00;94841.28;1224742;75;2917059;-70
2023/11/05 06:53:39;;;;;;;2.85;1.95;;;;;;;7.71;100.00;94875.84;1224929;75;2926486;-69
2023/11/05 06:56:12;;;;;;;2.10;1.40;;;;;;;7.82;100.00;94874.94;1225189;75;2915707;-68
2023/11/05 06:58:44;;;;;;;6.05;4.30;;;;;;;8.14;100.00;94849.50;1224730;75;2923473;-69
2023/11/05 07:01:20;;;;;;;3.40;2.80;;;;;;;8.10;100.00;94836.19;1225199;75;2916559;-70
2023/11/05 07:03:53;;;;;;;2.85;2.25;;;;;;;8.21;100.00;94825.06;1224191;75;2914725;-68
2023/11/05 07:06:26;;;;;;;3.15;2.20;;;;;;;8.35;100.00;94841.41;1224259;75;2925752;-70
2023/11/05 07:08:58;;;;;;;3.60;2.90;;;;;;;8.26;100.00;94867.81;1224650;75;2920933;-72
2023/11/05 07:11:31;;;;;;;2.50;1.80;;;;;;;7.86;100.00;94883.50;1220663;75;3084838;-69
2023/11/05 07:14:04;;;;;;;1.95;1.40;;;;;;;8.10;100.00;94849.81;1224649;75;2921088;-70
2023/11/05 07:16:39;;;;;;;1.40;1.10;;;;;;;8.39;100.00;94822.69;1224313;75;2939777;-70
2023/11/05 07:19:12;;;;;;;1.00;0.90;;;;;;;8.23;100.00;94857.97;1222473;75;2980563;-70
2023/11/05 07:21:49;;;;;;;4.70;3.35;;;;;;;8.11;100.00;94867.66;1224733;75;2918932;-69
2023/11/05 07:24:22;;;;;;;2.45;1.90;;;;;;;8.17;100.00;94870.97;1224265;75;2928233;-70
2023/11/05 07:26:55;;;;;;;3.95;3.20;;;;;;;8.16;100.00;94860.63;1224280;75;2928900;-70
2023/11/05 07:29:28;;;;;;;3.70;3.00;;;;;;;8.01;100.00;94853.75;1222814;75;2931149;-70
2023/11/05 07:32:03;;;;;;;9.00;3.35;;;;;;;7.98;100.00;94815.91;1223546;75;2926937;-69
2023/11/05 07:34:36;;;;;;;2.95;1.95;;;;;;;7.99;100.00;94806.50;1223170;75;2927743;-70
2023/11/05 07:37:08;;;;;;;1.90;1.45;;;;;;;7.79;100.00;94796.97;1223507;75;2928496;-70
2023/11/05 07:39:41;;;;;;;1.55;1.35;;;;;;;7.72;100.00;94779.31;1223966;75;2922030;-69
2023/11/05 07:42:14;;;;;;;3.50;2.55;;;;;;;7.67;100.00;94802.69;1223594;75;2925107;-69
2023/11/05 07:44:47;;;;;;;3.50;1.90;;;;;;;7.82;100.00;94825.91;1222756;75;2923138;-68
2023/11/05 07:47:22;;;;;;;2.75;2.05;;;;;;;7.95;100.00;94871.44;1224440;75;2918213;-70
2023/11/05 07:49:54;;;;;;;3.65;2.50;;;;;;;8.05;100.00;94886.81;1224039;75;2925953;-70
2023/11/05 07:52:27;;;;;;;1.90;1.20;;;;;;;7.93;100.00;94879.41;1224652;75;2921085;-68
2023/11/05 07:55:02;;;;;;;5.95;4.30;;;;;;;8.10;100.00;94868.91;1224904;75;2917413;-68
2023/11/05 07:57:36;;;;;;;7.70;5.65;;;;;;;8.21;100.00;94857.03;1224203;75;2922672;-71
2023/11/05 08:00:15;;;;;;;4.00;2.90;;;;;;;8.40;100.00;94852.19;1225506;75;2941464;-69
2023/11/05 08:02:50;;;;;;;2.05;1.20;;;;;;;8.22;100.00;94844.88;1224110;75;2919858;-69
2023/11/05 08:05:23;;;;;;;1.80;1.30;;;;;;;8.40;100.00;94840.56;1224669;75;2921538;-72
2023/11/05 08:07:55;;;;;;;0.85;0.70;;;;;;;8.55;100.00;94846.16;1225101;75;2927371;-71
2023/11/05 08:10:28;;;;;;;0.80;0.65;;;;;;;8.70;100.00;94854.47;1224204;75;2935479;-68
2023/11/05 08:13:01;;;;;;;1.70;0.95;;;;;;;8.56;100.00;94866.69;1224383;75;2923641;-69
2023/11/05 08:15:33;;;;;;;1.20;0.90;;;;;;;8.60;100.00;94872.56;1224518;75;2919527;-68
2023/11/05 08:18:10;;;;;;;1.30;0.90;;;;;;;8.56;100.00;94893.97;1223630;75;2920200;-70
2023/11/05 08:20:42;;;;;;;2.05;1.20;;;;;;;8.44;100.00;94890.78;1224288;75;2916481;-71
2023/11/05 08:23:17;;;;;;;2.75;1.95;;;;;;;8.41;100.00;94870.00;1223388;75;2912859;-69
2023/11/05 08:25:50;;;;;;;2.00;1.50;;;;;;;8.40;100.00;94870.53;1224191;75;2919849;-68
2023/11/05 08:28:22;;;;;;;2.30;1.30;;;;;;;8.57;100.00;94883.81;1224644;75;2923237;-69
2023/11/05 08:30:55;;;;;;;1.50;1.20;;;;;;;9.03;100.00;94892.41;1224531;75;2922483;-70
2023/11/05 08:33:32;;;;;;;8.10;6.45;;;;;;;9.07;100.00;94888.09;1224029;75;2923051;-70
2023/11/05 08:36:05;;;;;;;5.40;4.65;;;;;;;9.26;100.00;94895.31;1223531;75;2919297;-71
2023/11/05 08:38:38;;;;;;;33.35;29.75;;;;;;;9.16;100.00;94892.31;1224535;75;2921729;-70
2023/11/05 08:41:10;;;;;;;16.80;14.40;;;;;;;9.16;100.00;94897.78;1224611;75;2917853;-71
2023/11/05 08:43:43;;;;;;;8.80;7.10;;;;;;;8.99;100.00;94892.00;1224882;75;2922950;-70
2023/11/05 08:46:15;;;;;;;4.50;3.45;;;;;;;9.02;100.00;94893.66;1194486;75;5371629;-68
2023/11/05 08:48:51;;;;;;;2.85;2.20;;;;;;;8.94;100.00;94894.31;1223671;75;2928445;-72
2023/11/05 08:51:33;;;;;;;3.40;2.85;;;;;;;9.04;100.00;94900.06;1223482;75;2921760;-71
2023/11/05 08:54:07;;;;;;;2.60;1.95;;;;;;;9.17;100.00;94897.25;1222879;75;2931215;-71
2023/11/05 08:56:39;;;;;;;1.85;1.55;;;;;;;9.54;100.00;94911.00;1224164;75;2936020;-69
2023/11/05 08:59:12;;;;;;;2.60;1.40;;;;;;;9.66;100.00;94914.19;1224517;75;2918455;-73
2023/11/05 09:01:44;;;;;;;1.95;1.60;;;;;;;9.67;100.00;94913.66;1224001;75;2946887;-72
2023/11/05 09:04:20;;;;;;;2.25;1.30;;;;;;;9.85;100.00;94917.41;1223774;75;2926188;-69
2023/11/05 09:06:55;;;;;;;1.65;0.95;;;;;;;10.11;100.00;94932.13;1224450;75;2932063;-69
2023/11/05 09:09:28;;;;;;;2.10;1.00;;;;;;;10.35;100.00;94933.72;1222874;75;2962882;-67
2023/11/05 09:12:03;;;;;;;1.20;1.00;;;;;;;10.29;100.00;94924.94;1224825;75;2910153;-72
2023/11/05 09:14:35;;;;;;;1.75;1.10;;;;;;;10.30;100.00;94920.94;1223715;75;2918575;-70
2023/11/05 09:17:09;;;;;;;1.60;1.00;;;;;;;10.45;100.00;94931.94;1221831;75;2925299;-72
2023/11/05 09:19:44;;;;;;;3.05;1.10;;;;;;;10.58;100.00;94950.94;1224798;75;2913415;-71
2023/11/05 09:22:17;;;;;;;1.45;1.10;;;;;;;10.51;100.00;94953.63;1224185;75;2922855;-70
2023/11/05 09:24:50;;;;;;;1.35;1.00;;;;;;;10.90;100.00;94952.50;1225006;75;2919081;-70
2023/11/05 09:27:22;;;;;;;1.65;1.10;;;;;;;10.76;100.00;94951.19;1225162;75;2917048;-69
2023/11/05 09:29:55;;;;;;;1.35;0.90;;;;;;;10.71;100.00;94954.81;1224421;75;2923883;-73
2023/11/05 09:32:28;;;;;;;2.15;1.20;;;;;;;11.56;100.00;94953.66;1222406;75;2993260;-69
2023/11/05 09:35:04;;;;;;;2.00;1.20;;;;;;;11.79;100.00;94961.88;1224664;75;2908407;-72
2023/11/05 09:37:37;;;;;;;2.05;1.40;;;;;;;12.19;100.00;94985.25;1224442;75;2920925;-71
2023/11/05 09:40:12;;;;;;;14.15;10.15;;;;;;;12.33;100.00;95008.44;1224769;75;2915803;-71
2023/11/05 09:42:58;;;;;;;16.10;13.00;;;;;;;11.91;100.00;95015.06;1223614;75;2950184;-70
2023/11/05 09:45:33;;;;;;;7.20;5.70;;;;;;;11.98;100.00;95023.84;1224336;75;2933886;-70
2023/11/05 09:48:08;;;;;;;4.45;2.45;;;;;;;11.61;100.00;95026.72;1224543;75;2922298;-70
2023/11/05 09:50:45;;;;;;;1.65;1.30;;;;;;;11.56;100.00;95015.94;1223989;75;2936111;-70
2023/11/05 09:53:20;;;;;;;1.85;1.20;;;;;;;11.44;100.00;95013.56;1223477;75;2929848;-67
2023/11/05 09:55:52;;;;;;;2.45;1.50;;;;;;;11.45;100.00;95015.03;1224166;75;2923156;-70
2023/11/05 09:58:25;;;;;;;2.05;1.35;;;;;;;11.76;100.00;95017.81;1223558;75;2936860;-73
2023/11/05 10:00:58;;;;;;;1.85;1.10;;;;;;;11.87;100.00;94997.53;1222942;75;2927103;-70
2023/11/05 10:03:30;;;;;;;1.60;1.20;;;;;;;12.32;100.00;94990.53;1224012;75;2924477;-68
2023/11/05 10:06:07;;;;;;;2.15;1.30;;;;;;;13.38;99.33;94985.13;1223608;75;2927127;-70
2023/11/05 10:08:40;;;;;;;2.00;1.20;;;;;;;13.46;95.11;94998.81;1224213;75;2927807;-69
2023/11/05 10:11:14;;;;;;;1.60;1.25;;;;;;;12.78;95.13;94998.59;1222738;75;2924499;-69
2023/11/05 10:13:47;;;;;;;1.75;1.20;;;;;;;12.36;94.83;95007.31;1224030;75;2928331;-69
2023/11/05 10:16:21;;;;;;;2.20;1.50;;;;;;;12.79;98.75;95006.28;1224465;75;2918152;-71
2023/11/05 10:18:58;;;;;;;1.85;1.20;;;;;;;12.52;95.55;94995.03;1223539;75;2936894;-69
2023/11/05 10:21:41;;;;;;;4.80;1.10;;;;;;;12.73;92.71;94983.81;1223376;75;2919978;-71
2023/11/05 10:24:13;;;;;;;1.20;0.90;;;;;;;13.16;92.31;94979.19;1224000;75;2922373;-72
2023/11/05 10:26:51;;;;;;;1.15;0.80;;;;;;;15.02;82.90;94974.19;1222151;75;2924015;-70
2023/11/05 10:29:24;;;;;;;2.30;1.10;;;;;;;15.30;78.97;94980.44;1224666;75;2924034;-69
2023/11/05 10:32:00;;;;;;;2.65;1.60;;;;;;;14.22;76.15;94978.94;1224030;75;2925590;-71
2023/11/05 10:34:35;;;;;;;3.60;2.45;;;;;;;13.80;78.46;94985.16;1224758;75;2924550;-70
2023/11/05 10:37:11;;;;;;;4.05;2.40;;;;;;;14.37;79.30;94989.06;1224156;75;2932438;-71
2023/11/05 10:39:44;;;;;;;1.70;0.95;;;;;;;13.87;82.34;94977.44;1224448;75;2925203;-71
2023/11/05 10:42:17;;;;;;;1.40;0.80;;;;;;;14.37;84.06;94980.06;1224891;75;2913594;-70
2023/11/05 10:44:51;;;;;;;0.75;0.65;;;;;;;16.06;78.78;94978.53;1224561;75;2918743;-71
2023/11/05 10:47:24;;;;;;;1.00;0.50;;;;;;;16.10;75.12;94978.13;1224827;75;2920996;-71
2023/11/05 10:49:58;;;;;;;1.00;0.50;;;;;;;16.07;71.11;94988.28;1224797;75;2914415;-70
2023/11/05 10:52:35;;;;;;;1.25;0.70;;;;;;;17.07;69.36;94982.94;1225049;75;2924923;-70
2023/11/05 10:55:08;;;;;;;0.70;0.55;;;;;;;17.03;68.00;94986.16;1223527;75;2924033;-71
2023/11/05 10:57:46;;;;;;;0.85;0.50;;;;;;;17.49;66.23;94993.44;1225212;75;2916620;-69
2023/11/05 11:00:51;;;;;;;1.65;0.70;;;;;;;17.66;69.40;94995.28;1225111;75;2917639;-69
2023/11/05 11:03:25;;;;;;;0.95;0.75;;;;;;;18.30;65.03;94981.56;1224401;75;2922291;-69
2023/11/05 11:06:08;;;;;;;0.75;0.60;;;;;;;18.64;66.07;94985.09;1225011;75;2925609;-71
2023/11/05 11:09:05;;;;;;;1.60;0.85;;;;;;;17.64;63.55;95000.66;1224240;75;2918057;-72
2023/11/05 11:11:40;;;;;;;1.95;1.35;;;;;;;17.49;64.40;95012.09;1224513;75;2918856;-70
2023/11/05 11:14:13;;;;;;;1.05;0.90;;;;;;;17.67;62.93;95013.31;1223516;75;2921654;-72
2023/11/05 11:16:48;;;;;;;0.65;0.50;;;;;;;17.52;64.54;95011.63;1224581;75;2922829;-69
2023/11/05 11:19:23;;;;;;;0.55;0.40;;;;;;;17.10;65.41;95001.84;1223697;75;2922835;-70
2023/11/05 11:22:05;;;;;;;0.70;0.50;;;;;;;17.50;69.14;94997.66;1222132;75;3001758;-69
2023/11/05 11:24:43;;;;;;;1.30;0.60;;;;;;;17.88;68.22;95004.38;1221424;75;3015305;-70
2023/11/05 11:27:18;;;;;;;0.50;0.50;;;;;;;17.25;68.41;94992.50;1224077;75;2909031;-70
2023/11/05 11:29:54;;;;;;;1.55;0.80;;;;;;;16.93;70.41;95002.75;1223576;75;2924916;-70
2023/11/05 11:32:27;;;;;;;0.60;0.50;;;;;;;18.47;65.22;94999.22;1223778;75;2921013;-72
2023/11/05 11:35:02;;;;;;;1.45;0.50;;;;;;;18.28;62.84;95013.94;1223997;75;2916163;-70
2023/11/05 11:37:36;;;;;;;0.65;0.60;;;;;;;18.01;66.86;95003.84;1224548;75;2923339;-70
2023/11/05 11:40:21;;;;;;;1.30;0.70;;;;;;;17.71;65.48;95002.53;1224540;75;2920101;-68
2023/11/05 11:42:53;;;;;;;0.50;0.45;;;;;;;18.01;65.18;95000.38;1224131;75;2923092;-72
2023/11/05 11:45:26;;;;;;;0.60;0.50;;;;;;;18.70;65.35;95018.00;1224089;75;2921167;-71
2023/11/05 11:47:59;;;;;;;0.85;0.50;;;;;;;17.94;66.29;95026.91;1224318;75;2921040;-71